Airfield :







YOU CAN JOIN US ON...

 
LOGIN :

Register | Disclaimer

   EN    FR    IT 

 









Legend :    VFR   Marginal VFR   IFR   Intensive IFR   Very Intensive IFR
Visi :
Ceiling :
>= 8 km
>= 3000ft
5 to 8 km
1000 to 3000 ft
1500m to 5 km
500 to 1000 ft
800 to 1500m
200 to 500 ft
< 800m
< 200 ft
Symbols :   Thunderstorms  Fog  Heavy snow  Heavy precipitations  Wind > 20 kt






- Airport Elevation : 792 ft
- IATA code : YSC


CYSC - Sherbrooke

CURRENT METAR :
  • 121513Z AUTO 24009KT 9SM BKN023 OVC029 23/21 A2953 RMK LTNG DIST NE SLP998 DENSITY ALT 2300FT

EXPIRED METARs :
  • 121500Z AUTO 25006KT 200V270 9SM FEW018 OVC027 23/22 A2953 RMK SLP997 DENSITY ALT 2300FT
  • 121457Z AUTO 24007KT 200V270 9SM BKN022 OVC029 23/21 A2953 RMK SLP997 DENSITY ALT 2300FT
  • 121436Z AUTO 23004KT 9SM FEW011 SCT018 BKN023 OVC041 22/21 A2952 RMK SLP995 DENSITY ALT 2200FT
  • 121433Z AUTO 23005KT 9SM -RA FEW014 BKN023 BKN029 OVC044 22/21 A2952 RMK SLP994 DENSITY ALT 2200FT
  • 121410Z AUTO 23009KT 180V250 7SM RA FEW012 SCT023 BKN036 BKN240 23/22 A2951 RMK SLP992 DENSITY ALT 2300FT
  • 121343Z AUTO 23005KT 9SM FEW015 SCT045 BKN075 BKN088 22/21 A2950 RMK SLP990 DENSITY ALT 2200FT
  • 121325Z AUTO 23005KT 200V270 9SM -RA FEW010 SCT017 BKN026 OVC043 21/20 A2950 RMK SLP990 DENSITY ALT 2100FT
  • 121323Z AUTO 23006G15KT 200V270 7SM -RA SCT010 BKN020 BKN026 OVC043 21/20 A2950 RMK SLP990 DENSITY ALT 2100FT
  • 121314Z AUTO 24009G20KT 2 1/2SM +RA BR SCT010 BKN021 BKN030 21/20 A2950 RMK SLP990 DENSITY ALT 2000FT
  • 121304Z AUTO 23009G20KT 7SM -RA FEW015 BKN021 BKN030 22/20 A2950 RMK PRESRR SLP990 DENSITY ALT 2200FT
  • 121258Z AUTO 21012G20KT 190V260 7SM +RA SCT015 BKN021 23/20 A2949 RMK SLP985 DENSITY ALT 2300FT

TAF AMD TAF CYSC
Valid from the 12 at 13:00 until the 12 at 23:00 UTC


121320Z 1213/1223 24010G20KT P6SM SCT015 BKN030
TEMPO 1213/1215 2SM -RA BR OVC015
FM121500 25010G20KT P6SM OVC030
TEMPO 1215/1223 3SM -SHRA BR OVC015
PROB30 1216/1223 VRB20G30KT 1SM +TSRA BR BKN015 OVC030CB RMK FCST BASED ON AUTO OBS. NXT FCST BY 121800Z
CZUL FIR / North America



MET'MAP, your aeronautical weather chart ! - Copyright ORBIFLY December 2007 - Disclaimer

ORBIFLY MET'MAP TEAM :

Programming & Development : Alexandra Zaïnal
Concept & original design : Baudouin d'Aumeries
Assistance for programming : Marc-Olivier Méhu
Technical & hardware support : Manuel Goepfert

Contact : metmap@orbifly.com




SOURCES & CREDITS :

   NOAA